Portada
METAR-TAF:

METAR-TAF

Aeroports :

Nova Orleans, Louisiana, Estats Units d'Amèrica

latitud: 29-59-34N, longitud: 090-15-03W, altitud: 1 m

Observació

L'informe es va fer fa 19 minuts, a les 17:53 UTC
Vent 8 kt del Sud/Sud-Est
Temperatura 25°C
Humitat 47%
Pressió 1017 hPa
Visibilitat: 16.1 km
Escasses núvols a una alçada de 3000 ft
Núvols disperses a una alçada de 13000 ft
Cel ennuvolat a una alçada de 27000 ft

METAR: KMSY 031753Z 15008KT 10SM FEW030 SCT130 BKN270 25/13 A3002 RMK AO2 SLP170 T02500133 10261 20172 50000

Hora: 13:12 (18:12 UTC)

Pronòstic

L'informe es va fer fa 44 minuts, a les 17:28 UTC
Pronòstic vàlid del 03 a les 18 UTC al 04 a les 24 UTC
Vent 7 kt del Est
Visibilitat: 10 km
Núvols disperses a una alçada de 25000 ft
A partir de les 04 a les 2300 UTC
Vent 6 kt del Sud-Est
Visibilitat: 10 km
Cel cobert a una alçada de 7000 ft

TAF: KMSY 031728Z 0318/0424 10007KT P6SM SCT250 FM042300 13006KT P6SM OVC070

Observacions i pronòstics meteorològics de més de 4000 aeroports (METAR i TAF).

Les estacions disponibles són els punts grocs i vermells al mapa.

Posi el ratolí al punt desitjat per veure el nom de l'estació.

Feu clic per veure les observacions i els pronòstics meteorològics.

Per canviar el mapa: feu clic els botons verds amb una creu de color negre per apropar; al botó verd amb un guió per allunyar la imatge; o en les fletxes verdes per a mapes adjacents.


METAR-TAF: